Time;durP1;ratioP1;P1;durP2;ratioP2;P2;SDS_P1;SDS_P2;PMS_P1;PMS_P2;Temp;Humidity;BMP_temperature;BMP_pressure;BME280_temperature;BME280_humidity;BME280_pressure;Samples;Min_cycle;Max_cycle;Signal;HPM_P1;HPM_P2
2021/11/14 00:00:28;;;;;;;9.68;5.18;;;;;;;;;;5034289;28;20033;-70
2021/11/14 00:02:53;;;;;;;10.30;5.68;;;;;;;;;;5035177;28;20068;-71
2021/11/14 00:05:19;;;;;;;10.98;5.18;;;;;;;;;;5050742;28;20069;-70
2021/11/14 00:07:45;;;;;;;8.70;5.15;;;;;;;;;;5033500;28;20068;-70
2021/11/14 09:38:08;;;;;;;18.67;8.35;;;;;;;;;;5128957;27;20152;-79
2021/11/14 09:40:34;;;;;;;22.10;8.40;;;;;;;;;;5087452;28;20058;-80
2021/11/14 09:43:01;;;;;;;19.50;8.20;;;;;;;;;;5110509;28;20095;-78
2021/11/14 09:45:28;;;;;;;18.95;8.25;;;;;;;;;;5092117;28;20024;-82
2021/11/14 09:47:54;;;;;;;19.15;8.50;;;;;;;;;;5092115;28;20028;-81
2021/11/14 09:50:19;;;;;;;20.88;9.07;;;;;;;;;;5050624;28;20044;-76
2021/11/14 09:52:45;;;;;;;21.20;7.80;;;;;;;;;;5050729;28;20033;-78
2021/11/14 09:55:11;;;;;;;23.77;6.25;;;;;;;;;;5050910;28;20032;-76
2021/11/14 09:57:37;;;;;;;12.85;6.05;;;;;;;;;;5050698;28;20159;-77
2021/11/14 10:00:04;;;;;;;12.63;5.32;;;;;;;;;;5050463;28;20469;-75
2021/11/14 10:02:35;;;;;;;12.15;5.30;;;;;;;;;;5049097;28;20051;-82
2021/11/14 10:05:01;;;;;;;18.23;6.18;;;;;;;;;;5050720;28;20487;-77
2021/11/14 10:07:27;;;;;;;15.73;5.47;;;;;;;;;;5050808;28;20041;-73
2021/11/14 10:09:53;;;;;;;18.40;5.40;;;;;;;;;;5031734;28;20519;-74
2021/11/14 10:12:20;;;;;;;12.93;4.95;;;;;;;;;;5050010;28;20029;-70
2021/11/14 10:14:47;;;;;;;16.27;4.90;;;;;;;;;;5048649;28;20025;-74
2021/11/14 10:17:18;;;;;;;13.05;4.82;;;;;;;;;;5049747;28;20121;-74
2021/11/14 10:19:45;;;;;;;9.00;4.40;;;;;;;;;;5049893;28;20029;-73
2021/11/14 10:22:10;;;;;;;10.73;4.35;;;;;;;;;;5049595;28;20112;-75
2021/11/14 10:24:37;;;;;;;8.05;4.57;;;;;;;;;;5048369;28;20108;-73
2021/11/14 10:27:10;;;;;;;11.10;4.43;;;;;;;;;;5048693;28;20033;-74
2021/11/14 10:29:39;;;;;;;18.77;8.18;;;;;;;;;;5045903;28;20059;-75
2021/11/14 10:32:08;;;;;;;20.02;9.82;;;;;;;;;;5059205;28;20037;-75
2021/11/14 10:34:43;;;;;;;19.15;7.50;;;;;;;;;;5027143;28;20071;-75
2021/11/14 10:37:09;;;;;;;15.85;7.53;;;;;;;;;;5048374;28;20049;-74
2021/11/14 10:39:38;;;;;;;17.42;7.43;;;;;;;;;;5063826;28;20082;-79
2021/11/14 10:42:10;;;;;;;19.75;8.27;;;;;;;;;;5069384;28;20640;-78
2021/11/14 10:44:44;;;;;;;15.77;7.72;;;;;;;;;;5069342;28;20485;-80
2021/11/14 10:47:10;;;;;;;16.00;8.00;;;;;;;;;;5061599;28;20048;-79
2021/11/14 10:49:35;;;;;;;16.15;7.63;;;;;;;;;;5051122;28;20408;-76
2021/11/14 10:52:01;;;;;;;15.75;8.13;;;;;;;;;;5011015;28;20041;-77
2021/11/14 10:54:27;;;;;;;17.58;8.00;;;;;;;;;;5022863;28;20033;-79
2021/11/14 10:57:00;;;;;;;18.10;8.85;;;;;;;;;;5016243;28;20045;-84
2021/11/14 10:59:25;;;;;;;18.98;8.63;;;;;;;;;;5016075;28;20160;-76
2021/11/14 11:01:52;;;;;;;22.42;9.27;;;;;;;;;;5016293;28;20480;-76
2021/11/14 11:04:22;;;;;;;22.63;9.45;;;;;;;;;;5023113;28;20034;-78
2021/11/14 11:06:54;;;;;;;20.75;9.80;;;;;;;;;;5036066;28;20076;-77
2021/11/14 11:09:29;;;;;;;20.40;8.57;;;;;;;;;;5022470;28;20028;-74
2021/11/14 11:11:56;;;;;;;24.20;9.73;;;;;;;;;;5014344;28;20038;-75
2021/11/14 11:14:25;;;;;;;26.33;9.82;;;;;;;;;;5014234;28;20076;-76
2021/11/14 11:16:50;;;;;;;28.08;10.00;;;;;;;;;;5014335;28;20037;-77
2021/11/14 11:19:23;;;;;;;28.48;9.65;;;;;;;;;;5013796;28;20022;-79
2021/11/14 11:21:49;;;;;;;25.92;9.77;;;;;;;;;;5012816;28;20022;-79
2021/11/14 11:24:16;;;;;;;27.05;9.63;;;;;;;;;;5014325;28;20033;-76
2021/11/14 11:26:53;;;;;;;26.33;10.93;;;;;;;;;;5014915;28;20034;-77
2021/11/14 11:29:20;;;;;;;23.25;10.00;;;;;;;;;;5014181;28;20378;-82
2021/11/14 11:31:47;;;;;;;24.20;10.50;;;;;;;;;;4997103;28;20029;-80
2021/11/14 11:34:14;;;;;;;25.42;10.57;;;;;;;;;;5012085;28;20546;-83
2021/11/14 11:36:39;;;;;;;27.33;10.43;;;;;;;;;;5012943;28;20048;-77
2021/11/14 11:39:05;;;;;;;22.92;10.57;;;;;;;;;;4996835;28;20034;-84
2021/11/14 11:41:31;;;;;;;24.48;10.32;;;;;;;;;;4997587;28;20053;-83
2021/11/14 11:43:56;;;;;;;24.55;10.93;;;;;;;;;;4996809;28;20044;-83
2021/11/14 11:46:33;;;;;;;23.65;10.70;;;;;;;;;;4996749;28;20041;-80
2021/11/14 11:49:00;;;;;;;26.65;10.90;;;;;;;;;;4994926;28;20050;-83
2021/11/14 11:51:30;;;;;;;25.65;11.80;;;;;;;;;;5024589;28;20389;-80
2021/11/14 11:54:13;;;;;;;26.40;9.80;;;;;;;;;;4996611;28;20038;-79
2021/11/14 11:56:44;;;;;;;26.80;10.65;;;;;;;;;;5011619;28;20116;-83
2021/11/14 11:59:09;;;;;;;23.08;10.52;;;;;;;;;;4978990;28;20061;-80
2021/11/14 12:01:35;;;;;;;22.35;11.10;;;;;;;;;;4995572;28;20053;-79
2021/11/14 12:04:21;;;;;;;25.25;10.65;;;;;;;;;;4996258;28;20080;-78
2021/11/14 12:06:58;;;;;;;19.83;9.85;;;;;;;;;;5029444;28;20124;-81
2021/11/14 12:09:28;;;;;;;23.17;10.88;;;;;;;;;;5033243;28;20025;-74
2021/11/14 12:11:53;;;;;;;23.27;10.30;;;;;;;;;;5032317;28;20040;-75
2021/11/14 12:14:19;;;;;;;20.98;9.35;;;;;;;;;;5027663;28;20030;-77
2021/11/14 12:16:56;;;;;;;23.98;10.48;;;;;;;;;;5029206;28;20070;-77
2021/11/14 12:19:24;;;;;;;21.95;10.30;;;;;;;;;;5029347;28;20076;-76
2021/11/14 12:21:56;;;;;;;22.95;10.38;;;;;;;;;;5034919;28;20033;-74
2021/11/14 12:24:22;;;;;;;20.58;10.60;;;;;;;;;;5041238;28;20097;-78
2021/11/14 12:26:47;;;;;;;22.42;9.80;;;;;;;;;;5030935;28;20044;-79
2021/11/14 12:29:22;;;;;;;21.45;10.32;;;;;;;;;;5014809;28;20381;-79
2021/11/14 12:31:49;;;;;;;20.27;9.82;;;;;;;;;;5031102;28;20472;-76
2021/11/14 12:34:20;;;;;;;22.00;10.13;;;;;;;;;;5032323;28;20021;-79
2021/11/14 12:36:46;;;;;;;22.98;10.48;;;;;;;;;;5047418;28;20499;-78
2021/11/14 12:39:12;;;;;;;20.73;10.02;;;;;;;;;;5066291;28;20060;-74
2021/11/14 12:41:38;;;;;;;24.02;10.40;;;;;;;;;;5013268;28;20380;-73
2021/11/14 13:20:42;;;;;;;23.05;7.85;;;;;;;;;;5049472;27;20166;-79
2021/11/14 13:23:09;;;;;;;17.60;8.27;;;;;;;;;;5049105;28;20037;-77
2021/11/14 13:25:35;;;;;;;16.60;8.10;;;;;;;;;;5049772;28;20045;-77
2021/11/14 13:28:01;;;;;;;16.77;8.65;;;;;;;;;;5049412;28;20029;-77
2021/11/14 13:30:27;;;;;;;18.85;8.10;;;;;;;;;;5048694;28;20029;-75
2021/11/14 13:32:53;;;;;;;15.85;7.97;;;;;;;;;;5064877;28;20439;-76
2021/11/14 13:35:19;;;;;;;13.80;8.05;;;;;;;;;;5049631;28;20068;-78
2021/11/14 13:37:47;;;;;;;17.83;8.05;;;;;;;;;;5064924;28;20118;-75
2021/11/14 13:40:14;;;;;;;16.55;8.00;;;;;;;;;;5060867;28;20037;-74
2021/11/14 13:42:48;;;;;;;16.83;8.15;;;;;;;;;;5065787;28;20032;-74
2021/11/14 13:45:14;;;;;;;17.10;7.70;;;;;;;;;;5083779;28;20032;-74
2021/11/14 13:47:43;;;;;;;14.70;8.38;;;;;;;;;;5084275;28;20029;-74
2021/11/14 13:50:11;;;;;;;15.27;7.85;;;;;;;;;;5067323;28;20031;-73
2021/11/14 13:52:37;;;;;;;15.85;7.18;;;;;;;;;;5067899;28;20090;-75
2021/11/14 13:55:05;;;;;;;16.45;8.65;;;;;;;;;;5068803;28;20459;-73
2021/11/14 13:57:32;;;;;;;17.92;8.07;;;;;;;;;;5067813;28;20028;-76
2021/11/14 13:59:58;;;;;;;18.48;8.15;;;;;;;;;;5067315;28;20127;-78
2021/11/14 14:02:27;;;;;;;24.02;12.30;;;;;;;;;;5068732;28;20086;-74
2021/11/14 14:04:55;;;;;;;33.30;14.93;;;;;;;;;;5050885;28;20044;-75
2021/11/14 14:07:21;;;;;;;31.80;14.77;;;;;;;;;;5067540;28;20021;-77
2021/11/14 14:09:54;;;;;;;28.77;13.93;;;;;;;;;;5062476;28;20033;-71
2021/11/14 14:12:20;;;;;;;23.30;10.73;;;;;;;;;;5048681;28;20031;-78
2021/11/14 14:14:46;;;;;;;21.00;10.68;;;;;;;;;;5048517;28;20029;-75
2021/11/14 14:17:12;;;;;;;23.75;10.68;;;;;;;;;;5031377;28;20132;-75
2021/11/14 14:19:38;;;;;;;19.13;10.07;;;;;;;;;;5049449;28;20136;-78
2021/11/14 14:22:04;;;;;;;22.45;9.90;;;;;;;;;;5048444;28;20052;-77
2021/11/14 14:24:30;;;;;;;19.17;9.55;;;;;;;;;;5049765;28;20471;-78
2021/11/14 14:26:55;;;;;;;23.58;9.20;;;;;;;;;;5049751;28;20033;-75
2021/11/14 14:29:23;;;;;;;20.85;9.18;;;;;;;;;;5048087;28;20112;-78
2021/11/14 14:31:48;;;;;;;19.90;8.98;;;;;;;;;;5036467;28;20040;-78
2021/11/14 14:34:18;;;;;;;14.75;8.07;;;;;;;;;;5034914;28;20034;-78
2021/11/14 14:36:44;;;;;;;14.50;7.90;;;;;;;;;;5034824;28;20407;-78
2021/11/14 14:39:10;;;;;;;16.05;8.20;;;;;;;;;;5035761;28;20041;-75
2021/11/14 14:41:37;;;;;;;15.93;8.00;;;;;;;;;;5034911;28;20033;-77
2021/11/14 14:44:04;;;;;;;16.50;7.88;;;;;;;;;;5036145;28;20068;-78
2021/11/14 14:46:34;;;;;;;15.20;8.38;;;;;;;;;;5036139;28;20025;-79
2021/11/14 14:49:11;;;;;;;14.75;7.65;;;;;;;;;;5035782;28;20029;-79
2021/11/14 14:51:44;;;;;;;17.48;8.02;;;;;;;;;;5034771;28;20025;-79
2021/11/14 14:54:12;;;;;;;19.73;8.23;;;;;;;;;;5034583;28;20067;-78
2021/11/14 14:56:40;;;;;;;14.73;7.85;;;;;;;;;;5018200;28;20034;-78
2021/11/14 14:59:10;;;;;;;15.48;7.90;;;;;;;;;;5035727;28;20512;-79
2021/11/14 15:01:44;;;;;;;15.80;8.20;;;;;;;;;;5035799;28;20029;-79
2021/11/14 15:04:10;;;;;;;;;;;;;;;;;;5037643;28;20020;-77
2021/11/14 15:06:36;;;;;;;15.93;7.78;;;;;;;;;;5050539;28;19915;-78
2021/11/14 15:09:02;;;;;;;15.77;8.02;;;;;;;;;;5060458;28;20242;-79
2021/11/14 15:11:31;;;;;;;17.02;8.23;;;;;;;;;;5040763;28;20430;-77
2021/11/14 15:13:57;;;;;;;15.18;8.02;;;;;;;;;;5043631;28;20028;-77
2021/11/14 15:16:23;;;;;;;40.45;9.25;;;;;;;;;;5035082;28;20029;-77
2021/11/14 15:18:49;;;;;;;16.85;8.40;;;;;;;;;;5033882;28;20041;-78
2021/11/14 15:21:14;;;;;;;15.00;8.05;;;;;;;;;;5041995;28;20103;-80
2021/11/14 15:23:40;;;;;;;17.60;8.52;;;;;;;;;;5056204;28;20044;-75
2021/11/14 15:26:06;;;;;;;17.90;8.85;;;;;;;;;;5048422;28;20104;-78
2021/11/14 15:28:36;;;;;;;16.08;8.05;;;;;;;;;;5052885;28;20112;-75
2021/11/14 15:31:09;;;;;;;16.27;8.13;;;;;;;;;;5052451;28;20100;-76
2021/11/14 15:33:38;;;;;;;15.57;7.93;;;;;;;;;;5052173;28;20124;-76
2021/11/14 15:36:04;;;;;;;17.23;7.85;;;;;;;;;;5069154;28;20651;-75
2021/11/14 15:38:30;;;;;;;15.25;7.95;;;;;;;;;;5053485;28;20029;-76
2021/11/14 15:40:57;;;;;;;15.45;7.55;;;;;;;;;;5033374;28;20041;-75
2021/11/14 15:43:23;;;;;;;18.48;8.75;;;;;;;;;;5046408;28;20056;-77
2021/11/14 15:45:49;;;;;;;20.75;9.35;;;;;;;;;;5056055;28;20052;-74
2021/11/14 15:48:15;;;;;;;24.45;11.70;;;;;;;;;;5059387;28;20032;-78
2021/11/14 15:50:42;;;;;;;21.50;9.50;;;;;;;;;;5055609;28;20116;-77
2021/11/14 15:53:07;;;;;;;23.00;9.77;;;;;;;;;;5066621;28;20047;-78
2021/11/14 15:55:34;;;;;;;17.52;9.32;;;;;;;;;;5067331;28;20114;-77
2021/11/14 15:58:02;;;;;;;19.15;9.20;;;;;;;;;;5066984;28;20044;-79
2021/11/14 16:00:29;;;;;;;16.75;9.15;;;;;;;;;;5065540;28;20037;-78
2021/11/14 16:02:54;;;;;;;21.85;8.68;;;;;;;;;;5083364;28;20021;-77
2021/11/14 16:05:21;;;;;;;19.90;8.63;;;;;;;;;;5064909;28;20096;-77
2021/11/14 16:07:47;;;;;;;23.95;8.70;;;;;;;;;;5059918;28;20029;-78
2021/11/14 16:10:13;;;;;;;17.13;8.82;;;;;;;;;;5056184;28;20041;-79
2021/11/14 16:12:39;;;;;;;17.20;8.88;;;;;;;;;;5057360;28;20071;-78
2021/11/14 16:15:07;;;;;;;20.23;9.63;;;;;;;;;;5059208;28;20074;-78
2021/11/14 16:17:33;;;;;;;17.23;9.23;;;;;;;;;;5052906;28;20612;-76
2021/11/14 16:19:58;;;;;;;18.50;9.52;;;;;;;;;;5044414;28;20151;-78
2021/11/14 16:22:24;;;;;;;20.30;10.05;;;;;;;;;;5036159;28;20028;-77
2021/11/14 16:24:50;;;;;;;20.80;9.60;;;;;;;;;;5053031;28;20057;-76
2021/11/14 16:27:15;;;;;;;17.70;9.15;;;;;;;;;;5025805;28;20098;-76
2021/11/14 16:29:44;;;;;;;19.40;9.40;;;;;;;;;;5032692;28;20026;-75
2021/11/14 16:32:10;;;;;;;23.20;9.57;;;;;;;;;;5032800;28;20026;-77
2021/11/14 16:34:36;;;;;;;20.67;9.55;;;;;;;;;;5031799;28;20036;-77
2021/11/14 16:37:02;;;;;;;20.00;10.35;;;;;;;;;;5029001;28;20021;-76
2021/11/14 16:39:28;;;;;;;19.08;10.25;;;;;;;;;;5050509;28;20025;-77
2021/11/14 16:41:53;;;;;;;20.38;9.77;;;;;;;;;;5051806;28;20078;-77
2021/11/14 16:44:19;;;;;;;20.85;9.73;;;;;;;;;;5052685;28;20035;-78
2021/11/14 16:46:44;;;;;;;23.25;9.25;;;;;;;;;;5052049;28;20470;-76
2021/11/14 16:49:10;;;;;;;19.17;8.82;;;;;;;;;;5050874;28;20032;-76
2021/11/14 16:51:36;;;;;;;20.45;9.68;;;;;;;;;;5051244;28;20378;-79
2021/11/14 16:54:02;;;;;;;20.25;9.20;;;;;;;;;;5051798;28;20050;-84
2021/11/14 16:56:28;;;;;;;19.60;9.25;;;;;;;;;;5052226;28;20029;-85
2021/11/14 16:58:54;;;;;;;17.80;8.95;;;;;;;;;;5041414;28;20022;-82
2021/11/14 17:01:19;;;;;;;16.38;9.25;;;;;;;;;;5052188;28;20036;-85
2021/11/14 17:03:45;;;;;;;18.65;8.75;;;;;;;;;;5050258;28;20017;-75
2021/11/14 17:06:11;;;;;;;19.15;9.10;;;;;;;;;;5050586;28;20089;-81
2021/11/14 17:08:36;;;;;;;21.50;9.43;;;;;;;;;;5050361;28;20025;-84
2021/11/14 17:11:03;;;;;;;21.05;9.75;;;;;;;;;;5050962;28;20048;-83
2021/11/14 17:13:29;;;;;;;19.80;9.50;;;;;;;;;;5051614;28;20025;-84
2021/11/14 17:15:55;;;;;;;18.80;9.45;;;;;;;;;;5034862;28;20042;-81
2021/11/14 17:18:21;;;;;;;17.77;8.73;;;;;;;;;;5031958;28;20205;-82
2021/11/14 17:20:48;;;;;;;17.20;9.02;;;;;;;;;;5050077;28;20028;-80
2021/11/14 17:23:14;;;;;;;18.60;9.35;;;;;;;;;;5050174;28;20025;-81
2021/11/14 17:25:40;;;;;;;16.25;8.80;;;;;;;;;;5047338;28;20491;-80
2021/11/14 17:28:06;;;;;;;16.40;8.48;;;;;;;;;;5033167;28;20017;-80
2021/11/14 17:30:32;;;;;;;20.00;9.43;;;;;;;;;;5051119;28;20025;-80
2021/11/14 17:32:58;;;;;;;16.25;8.45;;;;;;;;;;5049641;28;20021;-81
2021/11/14 17:35:23;;;;;;;18.00;8.63;;;;;;;;;;5016700;28;20069;-81
2021/11/14 17:37:49;;;;;;;15.45;7.32;;;;;;;;;;5051646;28;20428;-82
2021/11/14 17:40:15;;;;;;;18.83;8.30;;;;;;;;;;5051245;28;20032;-84
2021/11/14 17:42:42;;;;;;;15.90;8.00;;;;;;;;;;5033758;28;20079;-83
2021/11/14 17:45:08;;;;;;;14.75;7.25;;;;;;;;;;5050465;28;20463;-83
2021/11/14 17:47:34;;;;;;;12.68;8.00;;;;;;;;;;5052717;28;20526;-84
2021/11/14 17:50:00;;;;;;;13.95;6.93;;;;;;;;;;5051980;28;20033;-85
2021/11/14 17:52:26;;;;;;;14.70;7.40;;;;;;;;;;5050816;28;20025;-78
2021/11/14 17:54:52;;;;;;;17.30;7.18;;;;;;;;;;5050911;28;20079;-80
2021/11/14 17:57:17;;;;;;;13.10;7.53;;;;;;;;;;5050241;28;20411;-81
2021/11/14 17:59:43;;;;;;;13.70;7.28;;;;;;;;;;5051620;28;20094;-85
2021/11/14 18:02:09;;;;;;;11.90;7.25;;;;;;;;;;5052012;28;20037;-80
2021/11/14 18:04:34;;;;;;;11.60;6.25;;;;;;;;;;5052079;28;20037;-80
2021/11/14 18:07:00;;;;;;;10.82;6.22;;;;;;;;;;5053393;28;20056;-81
2021/11/14 18:09:26;;;;;;;14.07;7.13;;;;;;;;;;5055444;28;20112;-77
2021/11/14 18:11:52;;;;;;;12.90;6.57;;;;;;;;;;5055506;28;20100;-75
2021/11/14 18:14:18;;;;;;;13.60;7.40;;;;;;;;;;5056127;28;20087;-87
2021/11/14 18:16:44;;;;;;;16.00;7.50;;;;;;;;;;5037488;28;20029;-85
2021/11/14 18:19:10;;;;;;;13.32;6.90;;;;;;;;;;5055172;28;20052;-86
2021/11/14 18:21:35;;;;;;;12.45;6.60;;;;;;;;;;5037730;28;20388;-87
2021/11/14 18:24:01;;;;;;;11.60;6.97;;;;;;;;;;5037259;28;20033;-82
2021/11/14 18:26:28;;;;;;;13.10;6.90;;;;;;;;;;5038081;28;20071;-82
2021/11/14 18:28:54;;;;;;;10.95;6.35;;;;;;;;;;5055317;28;20036;-80
2021/11/14 18:31:20;;;;;;;10.85;6.60;;;;;;;;;;5052791;28;20025;-80
2021/11/14 18:33:46;;;;;;;15.90;6.45;;;;;;;;;;5045706;28;20128;-83
2021/11/14 18:36:13;;;;;;;14.68;6.38;;;;;;;;;;5036896;28;20578;-79
2021/11/14 18:38:39;;;;;;;13.48;6.45;;;;;;;;;;5053600;28;20025;-79
2021/11/14 18:41:05;;;;;;;13.23;7.28;;;;;;;;;;5023724;28;20037;-79
2021/11/14 18:43:31;;;;;;;14.45;6.55;;;;;;;;;;5019807;28;20028;-75
2021/11/14 18:45:57;;;;;;;12.23;6.72;;;;;;;;;;5034814;28;20028;-78
2021/11/14 18:48:23;;;;;;;11.05;6.50;;;;;;;;;;5037038;28;20059;-78
2021/11/14 18:50:48;;;;;;;11.57;6.55;;;;;;;;;;5053143;28;20488;-77
2021/11/14 18:53:14;;;;;;;12.13;6.53;;;;;;;;;;5053316;28;20493;-79
2021/11/14 18:55:50;;;;;;;11.23;6.25;;;;;;;;;;5054582;28;20021;-79
2021/11/14 18:58:16;;;;;;;9.75;6.45;;;;;;;;;;5054360;28;20045;-79
2021/11/14 19:00:41;;;;;;;10.90;5.60;;;;;;;;;;5020017;28;20047;-77
2021/11/14 19:03:07;;;;;;;9.65;5.90;;;;;;;;;;5036320;28;20029;-79
2021/11/14 19:05:35;;;;;;;9.48;6.05;;;;;;;;;;5036605;28;20124;-79
2021/11/14 19:08:01;;;;;;;11.77;6.15;;;;;;;;;;5017051;28;20025;-82
2021/11/14 19:10:26;;;;;;;10.73;5.57;;;;;;;;;;5034339;28;20022;-77
2021/11/14 19:12:52;;;;;;;9.65;6.07;;;;;;;;;;5032889;28;20030;-78
2021/11/14 19:15:18;;;;;;;9.15;5.68;;;;;;;;;;5032918;28;20025;-80
2021/11/14 19:17:44;;;;;;;11.98;5.75;;;;;;;;;;5042156;28;20433;-78
2021/11/14 19:20:15;;;;;;;11.98;5.93;;;;;;;;;;5035924;28;20053;-81
2021/11/14 19:22:42;;;;;;;9.05;5.45;;;;;;;;;;5052935;28;20116;-81
2021/11/14 19:25:08;;;;;;;11.77;5.55;;;;;;;;;;5052966;28;20091;-82
2021/11/14 19:27:34;;;;;;;11.68;5.72;;;;;;;;;;5053384;28;20490;-80
2021/11/14 19:30:00;;;;;;;8.20;5.20;;;;;;;;;;5052862;28;20025;-80
2021/11/14 19:32:26;;;;;;;10.15;5.15;;;;;;;;;;5039771;28;20025;-77
2021/11/14 19:34:52;;;;;;;11.23;5.38;;;;;;;;;;5033848;28;20244;-83
2021/11/14 19:37:18;;;;;;;8.98;5.00;;;;;;;;;;5032459;28;20048;-76
2021/11/14 19:39:44;;;;;;;7.20;4.78;;;;;;;;;;5047837;28;20037;-80
2021/11/14 19:42:11;;;;;;;9.85;4.95;;;;;;;;;;5052698;28;20447;-83
2021/11/14 19:44:37;;;;;;;10.77;5.90;;;;;;;;;;5035342;28;20112;-83
2021/11/14 19:47:03;;;;;;;10.90;5.05;;;;;;;;;;5053258;28;20112;-85
2021/11/14 19:49:29;;;;;;;7.72;4.57;;;;;;;;;;5053743;28;20036;-82
2021/11/14 19:51:56;;;;;;;8.65;5.43;;;;;;;;;;5052223;28;20021;-82
2021/11/14 19:54:22;;;;;;;8.32;5.07;;;;;;;;;;5036232;28;20119;-87
2021/11/14 19:56:47;;;;;;;9.35;5.43;;;;;;;;;;5052401;28;20138;-80
2021/11/14 19:59:13;;;;;;;8.85;4.97;;;;;;;;;;5052359;28;20499;-83
2021/11/14 20:01:39;;;;;;;8.45;4.85;;;;;;;;;;5053771;28;20044;-80
2021/11/14 20:04:05;;;;;;;8.63;4.82;;;;;;;;;;5053399;28;20494;-82
2021/11/14 20:06:31;;;;;;;10.02;5.20;;;;;;;;;;5035945;28;20040;-82
2021/11/14 20:08:56;;;;;;;9.10;4.90;;;;;;;;;;5051745;28;20032;-81
2021/11/14 20:11:22;;;;;;;8.05;4.72;;;;;;;;;;5053288;28;20027;-79
2021/11/14 20:13:49;;;;;;;6.80;4.57;;;;;;;;;;5051962;28;20471;-80
2021/11/14 20:16:17;;;;;;;9.20;4.40;;;;;;;;;;5052787;28;20079;-79
2021/11/14 20:18:44;;;;;;;6.93;4.15;;;;;;;;;;5051518;28;20048;-79
2021/11/14 20:21:10;;;;;;;11.13;4.82;;;;;;;;;;5051319;28;20071;-77
2021/11/14 20:23:37;;;;;;;8.25;5.07;;;;;;;;;;5052667;28;20098;-77
2021/11/14 20:26:03;;;;;;;11.48;4.72;;;;;;;;;;5050810;28;20086;-77
2021/11/14 20:28:29;;;;;;;8.32;4.40;;;;;;;;;;5033889;28;20033;-77
2021/11/14 20:30:58;;;;;;;8.00;4.72;;;;;;;;;;5051938;28;20025;-76
2021/11/14 20:33:24;;;;;;;7.78;4.65;;;;;;;;;;5050134;28;20531;-77
2021/11/14 20:35:50;;;;;;;8.15;5.00;;;;;;;;;;5049697;28;20028;-78
2021/11/14 20:38:16;;;;;;;7.47;4.68;;;;;;;;;;5050439;28;20029;-79
2021/11/14 20:40:44;;;;;;;8.75;4.80;;;;;;;;;;5050499;28;20456;-79
2021/11/14 20:43:09;;;;;;;7.93;4.57;;;;;;;;;;5049383;28;20100;-77
2021/11/14 20:45:36;;;;;;;7.95;4.38;;;;;;;;;;5050672;28;20113;-80
2021/11/14 20:48:02;;;;;;;13.35;4.78;;;;;;;;;;5051378;28;20069;-78
2021/11/14 20:50:28;;;;;;;7.85;4.75;;;;;;;;;;5031468;28;20582;-79
2021/11/14 20:52:54;;;;;;;9.95;5.00;;;;;;;;;;5052205;28;20534;-80
2021/11/14 20:55:20;;;;;;;10.23;5.05;;;;;;;;;;5052346;28;20083;-80
2021/11/14 20:57:46;;;;;;;8.43;4.57;;;;;;;;;;5052207;28;20090;-79
2021/11/14 21:00:12;;;;;;;7.47;4.07;;;;;;;;;;5051402;28;20029;-79
2021/11/14 21:02:38;;;;;;;8.88;4.82;;;;;;;;;;5052111;28;20076;-78
2021/11/14 21:05:05;;;;;;;9.95;4.68;;;;;;;;;;5050923;28;20377;-80
2021/11/14 21:07:31;;;;;;;9.57;4.20;;;;;;;;;;5052582;28;20029;-78
2021/11/14 21:09:57;;;;;;;6.32;4.03;;;;;;;;;;5050754;28;20029;-80
2021/11/14 21:12:22;;;;;;;8.15;4.82;;;;;;;;;;5050960;28;20120;-79
2021/11/14 21:14:48;;;;;;;7.38;4.07;;;;;;;;;;5050767;28;20119;-79
2021/11/14 21:17:14;;;;;;;7.80;4.53;;;;;;;;;;5050877;28;20616;-81
2021/11/14 21:19:39;;;;;;;7.65;4.18;;;;;;;;;;5050890;28;20084;-79
2021/11/14 21:22:07;;;;;;;10.95;5.10;;;;;;;;;;5050779;28;20382;-82
2021/11/14 21:24:33;;;;;;;6.05;4.05;;;;;;;;;;5052127;28;20589;-78
2021/11/14 21:26:59;;;;;;;9.32;3.97;;;;;;;;;;5050605;28;20033;-78
2021/11/14 21:29:28;;;;;;;8.23;4.28;;;;;;;;;;5050863;28;20021;-80
2021/11/14 21:31:56;;;;;;;6.68;3.83;;;;;;;;;;5049432;28;20047;-83
2021/11/14 21:39:33;;;;;;;7.68;4.30;;;;;;;;;;5051576;28;20032;-81
2021/11/14 21:41:58;;;;;;;9.40;4.05;;;;;;;;;;5055102;28;20029;-81
2021/11/14 21:44:24;;;;;;;6.53;3.70;;;;;;;;;;5054683;28;20025;-75
2021/11/14 21:46:50;;;;;;;7.85;4.60;;;;;;;;;;5055977;28;20033;-78
2021/11/14 21:49:15;;;;;;;6.88;3.67;;;;;;;;;;5054568;28;20025;-76
2021/11/14 21:51:41;;;;;;;8.88;4.30;;;;;;;;;;5055794;28;20112;-75
2021/11/14 21:54:07;;;;;;;8.77;3.78;;;;;;;;;;5054167;28;20025;-78
2021/11/14 21:56:32;;;;;;;6.57;3.95;;;;;;;;;;5051006;28;20040;-75
2021/11/14 21:58:58;;;;;;;6.55;3.72;;;;;;;;;;5037082;28;20491;-78
2021/11/14 22:01:24;;;;;;;8.32;3.92;;;;;;;;;;5037808;28;20375;-77
2021/11/14 22:03:50;;;;;;;7.13;3.83;;;;;;;;;;5055581;28;20029;-78
2021/11/14 22:06:16;;;;;;;6.32;3.60;;;;;;;;;;5055153;28;20025;-80
2021/11/14 22:08:42;;;;;;;6.50;3.92;;;;;;;;;;5055619;28;20037;-77
2021/11/14 22:11:11;;;;;;;8.07;3.67;;;;;;;;;;5055373;28;20029;-81
2021/11/14 22:13:36;;;;;;;8.43;3.67;;;;;;;;;;5055699;28;20025;-79
2021/11/14 22:16:02;;;;;;;9.25;4.43;;;;;;;;;;5054204;28;20029;-80
2021/11/14 22:18:28;;;;;;;6.13;3.80;;;;;;;;;;5070328;28;20041;-77
2021/11/14 22:20:53;;;;;;;6.13;3.53;;;;;;;;;;5055264;28;20462;-76
2021/11/14 22:23:19;;;;;;;7.70;4.00;;;;;;;;;;5054017;28;20102;-76
2021/11/14 22:25:45;;;;;;;6.35;3.28;;;;;;;;;;5055231;28;20029;-78
2021/11/14 22:28:11;;;;;;;9.25;3.97;;;;;;;;;;5055217;28;20037;-79
2021/11/14 22:30:36;;;;;;;6.68;3.58;;;;;;;;;;5055147;28;20025;-76
2021/11/14 22:33:02;;;;;;;7.40;4.00;;;;;;;;;;5054756;28;20071;-76
2021/11/14 22:35:28;;;;;;;6.82;3.28;;;;;;;;;;5055114;28;20033;-77
2021/11/14 22:37:54;;;;;;;8.68;4.28;;;;;;;;;;5070324;28;20068;-75
2021/11/14 22:40:20;;;;;;;5.93;3.47;;;;;;;;;;5054955;28;20040;-74
2021/11/14 22:42:46;;;;;;;5.82;3.13;;;;;;;;;;5055129;28;20638;-74
2021/11/14 22:45:20;;;;;;;7.40;3.45;;;;;;;;;;5054551;28;20049;-75
2021/11/14 22:47:46;;;;;;;4.38;3.00;;;;;;;;;;5053646;28;20067;-79
2021/11/14 22:50:12;;;;;;;7.05;3.60;;;;;;;;;;5052768;28;20060;-75
2021/11/14 22:52:37;;;;;;;8.30;3.75;;;;;;;;;;5052485;28;20029;-75
2021/11/14 22:55:03;;;;;;;6.97;3.13;;;;;;;;;;5054482;28;20155;-75
2021/11/14 22:57:29;;;;;;;5.45;2.97;;;;;;;;;;5053240;28;20089;-75
2021/11/14 22:59:55;;;;;;;7.30;3.25;;;;;;;;;;5054217;28;20123;-74
2021/11/14 23:02:20;;;;;;;5.25;3.33;;;;;;;;;;5054447;28;20029;-75
2021/11/14 23:04:46;;;;;;;7.68;3.63;;;;;;;;;;5053457;28;20032;-78
2021/11/14 23:07:11;;;;;;;5.45;3.17;;;;;;;;;;5054126;28;20033;-76
2021/11/14 23:09:37;;;;;;;5.45;3.30;;;;;;;;;;5054073;28;20029;-78
2021/11/14 23:12:03;;;;;;;7.05;3.10;;;;;;;;;;5055551;28;20108;-77
2021/11/14 23:14:29;;;;;;;5.90;3.10;;;;;;;;;;5054003;28;20029;-76
2021/11/14 23:16:55;;;;;;;5.75;3.47;;;;;;;;;;5055431;28;20029;-76
2021/11/14 23:19:21;;;;;;;8.18;3.50;;;;;;;;;;5054053;28;20052;-75
2021/11/14 23:21:48;;;;;;;5.38;3.50;;;;;;;;;;5054215;28;20393;-76
2021/11/14 23:24:14;;;;;;;5.90;3.13;;;;;;;;;;5053922;28;20436;-76
2021/11/14 23:26:39;;;;;;;6.10;3.13;;;;;;;;;;5055284;28;20057;-76
2021/11/14 23:29:05;;;;;;;6.28;3.17;;;;;;;;;;5054265;28;20106;-79
2021/11/14 23:31:31;;;;;;;5.95;3.10;;;;;;;;;;5027749;28;20065;-76
2021/11/14 23:33:58;;;;;;;5.00;3.00;;;;;;;;;;5041549;28;20029;-76
2021/11/14 23:36:25;;;;;;;6.43;3.00;;;;;;;;;;5027111;28;20092;-76
2021/11/14 23:38:52;;;;;;;4.72;3.28;;;;;;;;;;5005616;28;20465;-76
2021/11/14 23:41:26;;;;;;;5.13;3.50;;;;;;;;;;5023678;28;20034;-76
2021/11/14 23:43:58;;;;;;;8.73;3.70;;;;;;;;;;4981529;28;20057;-76
2021/11/14 23:46:23;;;;;;;5.78;2.95;;;;;;;;;;5025408;28;20128;-79
2021/11/14 23:48:49;;;;;;;4.93;2.83;;;;;;;;;;5023810;28;20523;-78
2021/11/14 23:51:15;;;;;;;7.78;3.55;;;;;;;;;;5030966;28;20364;-79
2021/11/14 23:53:40;;;;;;;5.53;3.00;;;;;;;;;;4999167;28;20045;-79
2021/11/14 23:56:06;;;;;;;5.00;2.78;;;;;;;;;;5038646;28;20468;-79
